createdAt,value
2022-09-11T00:02:01.265Z,12.38
2022-09-11T00:04:29.229Z,15.20
2022-09-11T00:06:57.444Z,14.98
2022-09-11T00:09:25.312Z,11.52
2022-09-11T00:11:53.667Z,12.27
2022-09-11T00:14:21.638Z,10.10
2022-09-11T00:16:49.503Z,13.07
2022-09-11T00:19:20.254Z,12.93
2022-09-11T00:21:50.602Z,13.50
2022-09-11T00:24:18.529Z,14.05
2022-09-11T00:26:47.604Z,12.60
2022-09-11T00:29:15.713Z,12.27
2022-09-11T00:31:43.571Z,10.85
2022-09-11T00:34:11.667Z,12.07
2022-09-11T00:36:41.863Z,11.73
2022-09-11T00:39:14.588Z,10.65
2022-09-11T00:41:46.316Z,11.18
2022-09-11T00:44:16.297Z,10.30
2022-09-11T00:46:53.380Z,9.82
2022-09-11T00:49:46.841Z,11.07
2022-09-11T00:52:31.166Z,13.05
2022-09-11T00:55:14.971Z,9.00
2022-09-11T00:57:51.568Z,10.30
2022-09-11T01:00:19.977Z,9.73
2022-09-11T01:02:51.706Z,9.85
2022-09-11T01:07:54.418Z,10.98
2022-09-11T01:10:36.864Z,10.77
2022-09-11T01:13:10.928Z,12.02
2022-09-11T01:16:13.108Z,10.82
2022-09-11T01:19:28.696Z,10.43
2022-09-11T01:22:58.011Z,11.13
2022-09-11T01:26:11.418Z,13.20
2022-09-11T01:28:51.800Z,15.32
2022-09-11T01:31:26.970Z,12.10
2022-09-11T01:34:06.211Z,13.73
2022-09-11T01:36:42.122Z,14.15
2022-09-11T01:39:11.273Z,12.52
2022-09-11T01:41:46.400Z,14.45
2022-09-11T01:44:26.416Z,15.45
2022-09-11T01:46:54.719Z,16.30
2022-09-11T01:49:37.132Z,21.30
2022-09-11T01:52:13.031Z,20.38
2022-09-11T01:55:13.924Z,20.08
2022-09-11T01:58:07.249Z,23.88
2022-09-11T02:00:40.436Z,26.80
2022-09-11T02:03:16.607Z,26.40
2022-09-11T02:05:53.248Z,27.02
2022-09-11T02:08:50.181Z,27.50
2022-09-11T02:11:22.360Z,28.58
2022-09-11T02:14:22.584Z,23.25
2022-09-11T02:17:01.726Z,24.60
2022-09-11T02:19:31.428Z,22.92
2022-09-11T02:21:59.703Z,19.50
2022-09-11T02:24:28.834Z,23.63
2022-09-11T02:27:08.678Z,22.48
2022-09-11T02:29:37.118Z,18.95
2022-09-11T02:32:06.069Z,18.00
2022-09-11T02:34:37.087Z,24.80
2022-09-11T02:37:25.871Z,17.23
2022-09-11T02:40:28.115Z,18.05
2022-09-11T02:43:50.961Z,16.73
2022-09-11T02:46:26.999Z,15.90
2022-09-11T02:49:08.059Z,14.52
2022-09-11T02:51:59.290Z,18.80
2022-09-11T02:55:41.941Z,14.15
2022-09-11T02:58:18.060Z,16.48
2022-09-11T03:00:48.243Z,17.38
2022-09-11T03:03:16.222Z,19.13
2022-09-11T03:05:44.190Z,16.73
2022-09-11T03:08:13.570Z,15.40
2022-09-11T03:10:42.348Z,13.60
2022-09-11T03:13:11.151Z,15.40
2022-09-11T03:15:39.440Z,16.55
2022-09-11T03:18:08.387Z,18.25
2022-09-11T03:20:36.961Z,16.45
2022-09-11T03:23:10.870Z,18.48
2022-09-11T03:25:40.324Z,15.50
2022-09-11T03:28:09.506Z,16.83
2022-09-11T03:30:37.515Z,16.27
2022-09-11T03:33:05.439Z,19.13
2022-09-11T03:35:33.700Z,13.80
2022-09-11T03:38:03.485Z,15.95
2022-09-11T03:40:31.803Z,16.55
2022-09-11T03:42:59.833Z,16.48
2022-09-11T03:45:28.170Z,14.73
2022-09-11T03:47:58.701Z,16.55
2022-09-11T03:50:27.030Z,17.27
2022-09-11T03:52:54.910Z,15.88
2022-09-11T03:55:24.026Z,14.80
2022-09-11T03:57:52.002Z,15.45
2022-09-11T04:00:20.390Z,15.40
2022-09-11T04:02:48.629Z,14.35
2022-09-11T04:05:29.603Z,17.90
2022-09-11T04:07:58.096Z,18.38
2022-09-11T04:10:26.033Z,13.68
2022-09-11T04:12:54.459Z,15.55
2022-09-11T04:15:23.610Z,14.68
2022-09-11T04:17:51.761Z,16.45
2022-09-11T04:20:19.878Z,11.95
2022-09-11T04:22:47.991Z,10.55
2022-09-11T04:25:16.200Z,11.18
2022-09-11T04:27:44.753Z,12.45
2022-09-11T04:30:17.321Z,13.02
2022-09-11T04:32:46.493Z,9.43
2022-09-11T04:35:14.845Z,9.10
2022-09-11T04:37:50.787Z,10.13
2022-09-11T04:40:18.861Z,8.60
2022-09-11T04:42:46.972Z,9.65
2022-09-11T04:45:15.413Z,10.95
2022-09-11T04:47:44.215Z,8.25
2022-09-11T04:50:14.089Z,10.00
2022-09-11T04:52:45.722Z,9.18
2022-09-11T04:55:13.823Z,12.30
2022-09-11T04:57:41.634Z,10.18
2022-09-11T05:00:13.710Z,11.70
2022-09-11T05:05:10.460Z,13.07
2022-09-11T05:07:38.837Z,12.52
2022-09-11T05:10:08.460Z,15.52
2022-09-11T05:12:36.469Z,13.05
2022-09-11T05:15:05.053Z,14.63
2022-09-11T05:17:33.040Z,11.80
2022-09-11T05:20:01.035Z,11.70
2022-09-11T05:22:31.592Z,13.82
2022-09-11T05:25:02.288Z,12.23
2022-09-11T05:27:30.706Z,13.95
2022-09-11T05:29:59.284Z,13.82
2022-09-11T05:32:27.097Z,12.10
2022-09-11T05:34:56.654Z,14.90
2022-09-11T05:37:25.778Z,15.13
2022-09-11T05:39:54.670Z,16.60
2022-09-11T05:42:24.937Z,14.88
2022-09-11T05:44:55.773Z,15.80
2022-09-11T05:47:26.898Z,15.23
2022-09-11T05:49:56.871Z,15.43
2022-09-11T05:52:24.993Z,14.18
2022-09-11T05:54:53.773Z,13.00
2022-09-11T05:57:21.881Z,13.32
2022-09-11T05:59:53.673Z,12.95
2022-09-11T06:02:21.759Z,11.82
2022-09-11T06:04:53.985Z,10.10
2022-09-11T06:07:24.575Z,10.35
2022-09-11T06:09:53.599Z,11.95
2022-09-11T06:12:21.926Z,12.13
2022-09-11T06:14:51.728Z,8.50
2022-09-11T06:17:19.687Z,9.18
2022-09-11T06:22:34.807Z,10.27
2022-09-11T06:25:02.717Z,8.57
2022-09-11T06:27:30.973Z,8.02
2022-09-11T06:29:59.226Z,8.32
2022-09-11T06:32:27.072Z,8.52
2022-09-11T06:34:55.569Z,6.10
2022-09-11T06:37:24.205Z,7.25
2022-09-11T06:39:52.572Z,7.60
2022-09-11T06:42:27.274Z,7.38
2022-09-11T06:44:58.737Z,7.78
2022-09-11T06:47:30.302Z,6.47
2022-09-11T06:49:58.461Z,8.73
2022-09-11T06:52:37.405Z,8.50
2022-09-11T06:55:13.602Z,7.03
2022-09-11T06:57:48.785Z,7.10
2022-09-11T07:00:22.458Z,7.25
2022-09-11T07:02:56.071Z,7.40
2022-09-11T07:05:25.921Z,5.47
2022-09-11T07:07:56.467Z,5.45
2022-09-11T07:10:26.551Z,8.05
2022-09-11T07:12:59.012Z,6.47
2022-09-11T07:15:27.311Z,7.05
2022-09-11T07:17:55.467Z,5.93
2022-09-11T07:20:24.029Z,5.70
2022-09-11T07:22:52.000Z,5.15
2022-09-11T07:25:21.687Z,5.88
2022-09-11T07:27:52.382Z,5.68
2022-09-11T07:30:23.053Z,4.25
2022-09-11T07:32:55.454Z,3.75
2022-09-11T07:35:23.294Z,2.95
2022-09-11T07:37:53.886Z,3.28
2022-09-11T07:40:26.329Z,4.85
2022-09-11T07:42:55.178Z,4.03
2022-09-11T07:45:23.922Z,2.05
2022-09-11T07:47:55.641Z,3.95
2022-09-11T07:50:25.372Z,3.07
2022-09-11T07:52:55.110Z,3.53
2022-09-11T07:55:23.356Z,4.05
2022-09-11T07:57:54.784Z,3.65
2022-09-11T08:00:24.192Z,3.33
2022-09-11T08:03:01.242Z,3.65
2022-09-11T08:05:34.682Z,3.42
2022-09-11T08:08:02.994Z,3.50
2022-09-11T08:10:32.828Z,3.08
2022-09-11T08:13:00.999Z,1.90
2022-09-11T08:15:33.933Z,3.92
2022-09-11T08:18:04.747Z,2.95
2022-09-11T08:20:32.987Z,3.30
2022-09-11T08:23:00.975Z,2.30
2022-09-11T08:25:30.104Z,2.47
2022-09-11T08:27:59.899Z,2.85
2022-09-11T08:30:28.884Z,3.33
2022-09-11T08:32:57.211Z,2.75
2022-09-11T08:35:26.392Z,3.92
2022-09-11T08:37:55.722Z,3.38
2022-09-11T08:40:24.792Z,3.10
2022-09-11T08:43:02.693Z,5.00
2022-09-11T08:45:36.198Z,3.40
2022-09-11T08:48:08.494Z,4.00
2022-09-11T08:50:42.306Z,4.00
2022-09-11T08:53:19.224Z,3.97
2022-09-11T08:56:06.760Z,4.25
2022-09-11T08:59:50.775Z,3.97
2022-09-11T09:02:39.484Z,3.05
2022-09-11T09:05:18.771Z,4.88
2022-09-11T09:08:11.925Z,4.05
2022-09-11T09:10:47.671Z,4.57
2022-09-11T09:13:58.667Z,4.25
2022-09-11T09:16:40.343Z,4.15
2022-09-11T09:19:39.628Z,2.92
2022-09-11T09:22:53.840Z,3.47
2022-09-11T09:25:25.682Z,3.38
2022-09-11T09:28:25.691Z,2.63
2022-09-11T09:31:07.754Z,4.18
2022-09-11T09:33:46.927Z,3.47
2022-09-11T09:36:36.060Z,3.60
2022-09-11T09:39:14.274Z,3.33
2022-09-11T09:42:08.816Z,5.20
2022-09-11T09:45:27.978Z,5.60
2022-09-11T09:47:56.111Z,4.22
2022-09-11T09:50:35.079Z,4.88
2022-09-11T09:53:23.984Z,4.00
2022-09-11T09:55:54.535Z,3.80
2022-09-11T09:58:40.828Z,3.47
2022-09-11T10:01:45.917Z,4.28
2022-09-11T10:04:25.502Z,4.80
2022-09-11T10:07:14.381Z,4.22
2022-09-11T10:09:58.246Z,2.75
2022-09-11T10:12:28.571Z,4.25
2022-09-11T10:14:58.758Z,4.18
2022-09-11T10:17:29.854Z,5.85
2022-09-11T10:20:17.203Z,7.25
2022-09-11T10:22:46.600Z,9.90
2022-09-11T10:25:20.337Z,9.38
2022-09-11T10:28:27.109Z,9.23
2022-09-11T10:31:00.651Z,6.32
2022-09-11T10:33:39.008Z,7.70
2022-09-11T10:36:10.263Z,4.32
2022-09-11T10:38:48.767Z,3.78
2022-09-11T10:41:27.847Z,4.07
2022-09-11T10:44:14.208Z,2.83
2022-09-11T10:46:46.428Z,3.33
2022-09-11T10:49:23.780Z,4.30
2022-09-11T10:52:17.276Z,5.18
2022-09-11T10:55:16.419Z,4.15
2022-09-11T10:57:59.092Z,4.10
2022-09-11T11:00:32.301Z,2.67
2022-09-11T11:03:07.494Z,3.55
2022-09-11T11:06:05.081Z,4.15
2022-09-11T11:09:25.624Z,3.53
2022-09-11T11:12:21.731Z,4.00
2022-09-11T11:15:46.524Z,4.10
2022-09-11T11:18:50.369Z,4.95
2022-09-11T11:21:45.594Z,3.45
2022-09-11T11:24:25.700Z,3.83
2022-09-11T11:27:24.229Z,4.03
2022-09-11T11:30:32.804Z,3.95
2022-09-11T11:33:29.134Z,4.13
2022-09-11T11:36:07.373Z,3.33
2022-09-11T11:38:50.612Z,2.75
2022-09-11T11:41:38.184Z,3.45
2022-09-11T11:44:16.198Z,3.67
2022-09-11T11:46:52.838Z,3.95
2022-09-11T11:50:01.685Z,6.05
2022-09-11T11:52:38.680Z,3.33
2022-09-11T11:55:18.167Z,3.80
2022-09-11T11:58:13.127Z,4.38
2022-09-11T12:00:54.698Z,3.58
2022-09-11T12:03:41.801Z,4.55
2022-09-11T12:06:10.595Z,5.43
2022-09-11T12:08:46.811Z,5.10
2022-09-11T12:11:29.339Z,3.22
2022-09-11T12:13:59.089Z,3.42
2022-09-11T12:16:34.639Z,3.60
2022-09-11T12:19:05.288Z,3.55
2022-09-11T12:21:36.736Z,6.07
2022-09-11T12:24:05.084Z,3.35
2022-09-11T12:26:33.616Z,3.42
2022-09-11T12:29:14.764Z,4.32
2022-09-11T12:31:51.882Z,4.72
2022-09-11T12:34:39.469Z,6.47
2022-09-11T12:37:45.317Z,4.15
2022-09-11T12:40:24.951Z,7.45
2022-09-11T12:43:29.607Z,5.65
2022-09-11T12:45:59.086Z,5.35
2022-09-11T12:49:18.008Z,4.20
2022-09-11T12:51:51.709Z,3.72
2022-09-11T12:54:44.741Z,4.88
2022-09-11T12:57:25.995Z,4.53
2022-09-11T12:59:59.638Z,5.63
2022-09-11T13:02:51.882Z,3.05
2022-09-11T13:05:41.262Z,5.20
2022-09-11T13:08:22.541Z,4.38
2022-09-11T13:10:50.888Z,6.75
2022-09-11T13:13:36.134Z,5.45
2022-09-11T13:16:35.081Z,4.38
2022-09-11T13:19:41.334Z,6.15
2022-09-11T13:22:28.799Z,5.78
2022-09-11T13:25:32.539Z,7.15
2022-09-11T13:28:02.402Z,3.88
2022-09-11T13:30:30.618Z,6.07
2022-09-11T13:33:16.166Z,6.75
2022-09-11T13:35:46.658Z,6.22
2022-09-11T13:38:27.064Z,6.43
2022-09-11T13:40:59.750Z,5.68
2022-09-11T13:43:45.640Z,4.07
2022-09-11T13:46:16.349Z,4.47
2022-09-11T13:48:47.309Z,4.55
2022-09-11T13:51:27.541Z,5.38
2022-09-11T13:54:04.958Z,3.65
2022-09-11T13:56:47.748Z,6.22
2022-09-11T13:59:38.228Z,7.20
2022-09-11T14:02:46.751Z,6.10
2022-09-11T14:05:22.340Z,8.82
2022-09-11T14:08:22.731Z,6.65
2022-09-11T14:10:58.512Z,4.97
2022-09-11T14:13:56.842Z,6.28
2022-09-11T14:16:36.659Z,7.00
2022-09-11T14:19:19.814Z,4.03
2022-09-11T14:21:51.992Z,7.38
2022-09-11T14:24:40.285Z,6.78
2022-09-11T14:27:33.232Z,8.52
2022-09-11T14:30:01.583Z,7.53
2022-09-11T14:32:40.646Z,6.38
2022-09-11T14:35:10.673Z,6.68
2022-09-11T14:37:46.477Z,7.63
2022-09-11T14:40:19.651Z,7.13
2022-09-11T14:42:49.032Z,6.72
2022-09-11T14:45:24.773Z,6.82
2022-09-11T14:47:53.709Z,8.60
2022-09-11T14:50:21.943Z,9.98
2022-09-11T14:52:50.029Z,7.05
2022-09-11T14:55:20.319Z,7.63
2022-09-11T14:57:48.404Z,6.95
2022-09-11T15:00:19.700Z,9.20
2022-09-11T15:02:48.195Z,8.20
2022-09-11T15:05:19.637Z,13.43
2022-09-11T15:07:49.255Z,8.18
2022-09-11T15:10:17.506Z,11.32
2022-09-11T15:12:45.390Z,12.18
2022-09-11T15:15:18.074Z,8.27
2022-09-11T15:17:46.369Z,10.00
2022-09-11T15:20:14.414Z,7.38
2022-09-11T15:22:42.811Z,6.88
2022-09-11T15:25:12.594Z,8.23
2022-09-11T15:27:40.725Z,11.88
2022-09-11T15:30:11.691Z,9.52
2022-09-11T15:32:39.906Z,8.25
2022-09-11T15:35:08.477Z,10.20
2022-09-11T15:37:36.664Z,11.77
2022-09-11T15:40:06.866Z,7.10
2022-09-11T15:42:39.340Z,8.80
2022-09-11T15:45:09.314Z,10.15
2022-09-11T15:47:38.255Z,10.82
2022-09-11T15:50:07.946Z,7.72
2022-09-11T15:52:37.052Z,8.93
2022-09-11T15:55:05.960Z,8.70
2022-09-11T15:57:34.851Z,9.13
2022-09-11T16:00:04.950Z,9.90
2022-09-11T16:02:39.818Z,10.20
2022-09-11T16:05:08.429Z,8.57
2022-09-11T16:07:36.443Z,9.43
2022-09-11T16:10:05.615Z,9.48
2022-09-11T16:12:36.472Z,14.57
2022-09-11T16:15:05.007Z,12.57
2022-09-11T16:17:33.127Z,11.20
2022-09-11T16:20:01.388Z,10.13
2022-09-11T16:22:31.612Z,9.60
2022-09-11T16:24:59.741Z,10.07
2022-09-11T16:27:28.296Z,8.52
2022-09-11T16:30:32.201Z,15.70
2022-09-11T16:32:45.676Z,12.23
2022-09-11T16:35:14.407Z,8.75
2022-09-11T16:37:42.674Z,7.78
2022-09-11T16:40:11.405Z,7.25
2022-09-11T16:42:39.511Z,9.00
2022-09-11T16:45:08.235Z,6.28
2022-09-11T16:47:37.295Z,6.85
2022-09-11T16:50:07.433Z,7.53
2022-09-11T16:52:37.516Z,7.32
2022-09-11T16:55:10.003Z,5.40
2022-09-11T16:57:40.051Z,9.98
2022-09-11T17:00:10.675Z,7.70
2022-09-11T17:02:39.055Z,11.15
2022-09-11T17:05:09.422Z,7.25
2022-09-11T17:07:37.754Z,8.32
2022-09-11T17:10:06.635Z,5.25
2022-09-11T17:12:35.161Z,8.27
2022-09-11T17:15:04.044Z,9.70
2022-09-11T17:17:33.481Z,6.72
2022-09-11T17:20:01.822Z,10.75
2022-09-11T17:22:30.415Z,12.02
2022-09-11T17:24:59.259Z,11.00
2022-09-11T17:27:28.392Z,10.73
2022-09-11T17:29:57.839Z,8.20
2022-09-11T17:32:28.848Z,8.48
2022-09-11T17:34:58.792Z,7.50
2022-09-11T17:37:27.643Z,10.07
2022-09-11T17:39:56.888Z,8.13
2022-09-11T17:42:27.670Z,7.10
2022-09-11T17:44:56.811Z,9.23
2022-09-11T17:47:26.160Z,9.50
2022-09-11T17:49:57.343Z,9.20
2022-09-11T17:52:25.576Z,5.07
2022-09-11T17:54:54.268Z,9.52
2022-09-11T17:57:22.357Z,7.50
2022-09-11T17:59:50.658Z,9.80
2022-09-11T18:02:20.111Z,11.27
2022-09-11T18:04:48.766Z,9.02
2022-09-11T18:07:18.264Z,13.30
2022-09-11T18:09:47.252Z,11.73
2022-09-11T18:12:15.822Z,9.18
2022-09-11T18:14:44.310Z,8.77
2022-09-11T18:17:12.621Z,6.55
2022-09-11T18:19:40.914Z,7.50
2022-09-11T18:22:09.794Z,8.55
2022-09-11T18:24:39.841Z,6.93
2022-09-11T18:27:09.788Z,9.73
2022-09-11T18:29:39.918Z,8.25
2022-09-11T18:32:10.031Z,8.38
2022-09-11T18:34:39.125Z,6.53
2022-09-11T18:37:08.239Z,7.55
2022-09-11T18:39:36.679Z,37.25
2022-09-11T18:42:07.794Z,7.53
2022-09-11T18:44:36.366Z,13.98
2022-09-11T18:47:04.757Z,8.30
2022-09-11T18:49:35.416Z,11.35
2022-09-11T18:52:04.019Z,9.52
2022-09-11T18:54:34.175Z,11.38
2022-09-11T18:57:03.942Z,8.80
2022-09-11T18:59:37.946Z,8.90
2022-09-11T19:02:07.006Z,14.32
2022-09-11T19:04:35.893Z,13.80
2022-09-11T19:07:05.337Z,26.92
2022-09-11T19:09:33.489Z,21.90
2022-09-11T19:12:03.770Z,17.23
2022-09-11T19:14:33.187Z,11.38
2022-09-11T19:17:01.851Z,12.13
2022-09-11T19:19:30.192Z,23.77
2022-09-11T19:22:00.211Z,15.48
2022-09-11T19:24:30.620Z,12.20
2022-09-11T19:27:00.175Z,9.90
2022-09-11T19:29:29.180Z,14.05
2022-09-11T19:31:57.366Z,9.25
2022-09-11T19:34:25.403Z,4.95
2022-09-11T19:36:54.117Z,6.65
2022-09-11T19:39:22.976Z,13.13
2022-09-11T19:41:52.025Z,6.75
2022-09-11T19:44:21.155Z,7.22
2022-09-11T19:46:53.711Z,7.80
2022-09-11T19:49:22.072Z,6.32
2022-09-11T19:51:54.047Z,7.13
2022-09-11T19:54:23.155Z,5.55
2022-09-11T19:56:51.813Z,5.65
2022-09-11T19:59:19.853Z,5.32
2022-09-11T20:01:48.428Z,7.55
2022-09-11T20:04:17.777Z,8.65
2022-09-11T20:09:30.268Z,8.18
2022-09-11T20:12:00.598Z,7.25
2022-09-11T20:14:30.469Z,10.82
2022-09-11T20:17:00.441Z,8.18
2022-09-11T20:19:28.701Z,4.63
2022-09-11T20:21:56.825Z,6.20
2022-09-11T20:24:24.837Z,5.82
2022-09-11T20:26:54.868Z,8.38
2022-09-11T20:29:22.829Z,6.47
2022-09-11T20:31:51.651Z,8.82
2022-09-11T20:34:20.415Z,7.18
2022-09-11T20:36:48.477Z,6.65
2022-09-11T20:39:16.833Z,6.45
2022-09-11T20:41:45.297Z,5.15
2022-09-11T20:44:13.376Z,8.18
2022-09-11T20:46:43.691Z,6.15
2022-09-11T20:49:12.582Z,5.32
2022-09-11T20:51:40.904Z,9.00
2022-09-11T20:54:09.868Z,6.90
2022-09-11T20:56:37.982Z,9.23
2022-09-11T20:59:06.353Z,9.80
2022-09-11T21:01:36.136Z,6.13
2022-09-11T21:04:04.956Z,7.50
2022-09-11T21:06:37.188Z,7.43
2022-09-11T21:09:11.232Z,3.97
2022-09-11T21:11:42.406Z,6.60
2022-09-11T21:14:15.176Z,5.23
2022-09-11T21:16:43.974Z,7.07
2022-09-11T21:19:11.988Z,9.98
2022-09-11T21:21:40.507Z,6.30
2022-09-11T21:24:14.811Z,4.22
2022-09-11T21:26:42.831Z,4.25
2022-09-11T21:29:13.686Z,5.68
2022-09-11T21:31:42.056Z,5.63
2022-09-11T21:34:11.088Z,8.93
2022-09-11T21:36:39.089Z,4.90
2022-09-11T21:39:07.182Z,6.75
2022-09-11T21:41:35.987Z,10.15
2022-09-11T21:44:04.593Z,7.97
2022-09-11T21:46:34.599Z,6.95
2022-09-11T21:49:05.081Z,5.60
2022-09-11T21:51:33.073Z,8.00
2022-09-11T21:54:02.093Z,6.82
2022-09-11T21:56:32.730Z,6.38
2022-09-11T21:59:01.369Z,7.95
2022-09-11T22:01:32.001Z,7.28
2022-09-11T22:04:00.485Z,11.10
2022-09-11T22:06:29.998Z,5.85
2022-09-11T22:08:58.319Z,6.53
2022-09-11T22:11:26.563Z,11.88
2022-09-11T22:13:55.080Z,6.38
2022-09-11T22:16:23.706Z,9.75
2022-09-11T22:18:54.642Z,8.20
2022-09-11T22:21:23.245Z,7.05
2022-09-11T22:23:51.840Z,8.27
2022-09-11T22:26:21.645Z,5.30
2022-09-11T22:28:49.608Z,7.57
2022-09-11T22:31:23.954Z,6.75
2022-09-11T22:33:54.039Z,6.45
2022-09-11T22:36:28.885Z,5.78
2022-09-11T22:38:59.142Z,10.43
2022-09-11T22:41:27.567Z,7.18
2022-09-11T22:43:55.518Z,6.85
2022-09-11T22:46:24.625Z,8.95
2022-09-11T22:48:53.147Z,6.80
2022-09-11T22:51:21.190Z,9.75
2022-09-11T22:53:49.236Z,7.57
2022-09-11T22:56:17.444Z,9.48
2022-09-11T22:58:45.662Z,7.53
2022-09-11T23:01:22.346Z,4.68
2022-09-11T23:03:54.895Z,7.45
2022-09-11T23:06:41.546Z,7.10
2022-09-11T23:09:17.044Z,6.38
2022-09-11T23:11:46.441Z,9.25
2022-09-11T23:14:15.153Z,7.90
2022-09-11T23:16:43.527Z,8.60
2022-09-11T23:19:14.968Z,12.15
2022-09-11T23:21:43.432Z,8.40
2022-09-11T23:24:14.760Z,9.98
2022-09-11T23:26:43.691Z,9.90
2022-09-11T23:29:12.792Z,9.25
2022-09-11T23:31:41.543Z,8.52
2022-09-11T23:34:14.317Z,11.35
2022-09-11T23:36:43.460Z,7.97
2022-09-11T23:39:11.650Z,7.40
2022-09-11T23:41:39.601Z,8.80
2022-09-11T23:44:07.638Z,9.50
2022-09-11T23:46:35.693Z,8.30
2022-09-11T23:49:03.552Z,8.73
2022-09-11T23:51:32.875Z,5.95
2022-09-11T23:54:01.050Z,6.63
2022-09-11T23:56:28.915Z,10.82
2022-09-11T23:58:56.850Z,8.57
